sensor_id;sensor_type;location;lat;lon;timestamp;temperature;humidity
2603;DHT22;1311;47.966;7.958;2022-07-04T00:02:22;19.70;99.90
2603;DHT22;1311;47.966;7.958;2022-07-04T00:12:10;19.60;99.90
2603;DHT22;1311;47.966;7.958;2022-07-04T00:14:38;19.70;99.90
2603;DHT22;1311;47.966;7.958;2022-07-04T00:17:05;19.70;99.90
2603;DHT22;1311;47.966;7.958;2022-07-04T00:19:32;19.70;99.90
2603;DHT22;1311;47.966;7.958;2022-07-04T00:24:26;19.60;99.90
2603;DHT22;1311;47.966;7.958;2022-07-04T00:26:53;19.60;99.90
2603;DHT22;1311;47.966;7.958;2022-07-04T00:31:48;19.50;99.90
2603;DHT22;1311;47.966;7.958;2022-07-04T00:36:42;19.50;99.90
2603;DHT22;1311;47.966;7.958;2022-07-04T00:39:09;19.50;99.90
2603;DHT22;1311;47.966;7.958;2022-07-04T00:44:04;19.50;99.90
2603;DHT22;1311;47.966;7.958;2022-07-04T00:46:32;19.50;99.90
2603;DHT22;1311;47.966;7.958;2022-07-04T00:49:02;19.50;99.90
2603;DHT22;1311;47.966;7.958;2022-07-04T00:51:29;19.50;99.90
2603;DHT22;1311;47.966;7.958;2022-07-04T00:56:24;19.50;99.90
2603;DHT22;1311;47.966;7.958;2022-07-04T00:58:51;19.50;99.90
2603;DHT22;1311;47.966;7.958;2022-07-04T01:01:19;19.50;99.90
2603;DHT22;1311;47.966;7.958;2022-07-04T01:03:46;19.50;99.90
2603;DHT22;1311;47.966;7.958;2022-07-04T01:06:16;19.40;99.90
2603;DHT22;1311;47.966;7.958;2022-07-04T01:16:06;19.40;99.90
2603;DHT22;1311;47.966;7.958;2022-07-04T01:21:02;19.30;99.90
2603;DHT22;1311;47.966;7.958;2022-07-04T01:28:24;19.40;99.90
2603;DHT22;1311;47.966;7.958;2022-07-04T01:30:51;19.30;99.90
2603;DHT22;1311;47.966;7.958;2022-07-04T01:35:46;19.40;99.90
2603;DHT22;1311;47.966;7.958;2022-07-04T01:38:14;19.40;99.90
2603;DHT22;1311;47.966;7.958;2022-07-04T01:40:41;19.40;99.90
2603;DHT22;1311;47.966;7.958;2022-07-04T01:45:35;19.50;99.90
2603;DHT22;1311;47.966;7.958;2022-07-04T01:48:04;19.50;99.90
2603;DHT22;1311;47.966;7.958;2022-07-04T01:55:26;19.50;99.90
2603;DHT22;1311;47.966;7.958;2022-07-04T01:57:53;19.60;99.90
2603;DHT22;1311;47.966;7.958;2022-07-04T02:00:20;19.50;99.90
2603;DHT22;1311;47.966;7.958;2022-07-04T02:03:05;19.50;99.90
2603;DHT22;1311;47.966;7.958;2022-07-04T02:05:32;19.50;99.90
2603;DHT22;1311;47.966;7.958;2022-07-04T02:07:59;19.50;99.90
2603;DHT22;1311;47.966;7.958;2022-07-04T02:10:27;19.40;99.90
2603;DHT22;1311;47.966;7.958;2022-07-04T02:12:54;19.40;99.90
2603;DHT22;1311;47.966;7.958;2022-07-04T02:20:24;19.40;99.90
2603;DHT22;1311;47.966;7.958;2022-07-04T02:22:50;19.50;99.90
2603;DHT22;1311;47.966;7.958;2022-07-04T02:25:18;19.50;99.90
2603;DHT22;1311;47.966;7.958;2022-07-04T02:27:46;19.40;99.90
2603;DHT22;1311;47.966;7.958;2022-07-04T02:30:13;19.40;99.90
2603;DHT22;1311;47.966;7.958;2022-07-04T02:32:40;19.40;99.90
2603;DHT22;1311;47.966;7.958;2022-07-04T02:35:08;19.40;99.90
2603;DHT22;1311;47.966;7.958;2022-07-04T02:37:35;19.40;99.90
2603;DHT22;1311;47.966;7.958;2022-07-04T02:40:03;19.40;99.90
2603;DHT22;1311;47.966;7.958;2022-07-04T02:44:58;19.40;99.90
2603;DHT22;1311;47.966;7.958;2022-07-04T02:47:25;19.30;99.90
2603;DHT22;1311;47.966;7.958;2022-07-04T02:49:52;19.20;99.90
2603;DHT22;1311;47.966;7.958;2022-07-04T02:52:19;19.20;99.90
2603;DHT22;1311;47.966;7.958;2022-07-04T02:54:46;19.20;99.90
2603;DHT22;1311;47.966;7.958;2022-07-04T02:57:14;19.10;99.90
2603;DHT22;1311;47.966;7.958;2022-07-04T02:59:41;19.10;99.90
2603;DHT22;1311;47.966;7.958;2022-07-04T03:02:09;19.00;99.90
2603;DHT22;1311;47.966;7.958;2022-07-04T03:04:36;19.00;99.90
2603;DHT22;1311;47.966;7.958;2022-07-04T03:07:05;18.90;99.90
2603;DHT22;1311;47.966;7.958;2022-07-04T03:09:32;18.90;99.90
2603;DHT22;1311;47.966;7.958;2022-07-04T03:11:59;18.90;99.90
2603;DHT22;1311;47.966;7.958;2022-07-04T03:14:26;18.80;99.90
2603;DHT22;1311;47.966;7.958;2022-07-04T03:16:53;18.80;99.90
2603;DHT22;1311;47.966;7.958;2022-07-04T03:19:21;18.80;99.90
2603;DHT22;1311;47.966;7.958;2022-07-04T03:21:47;18.70;99.90
2603;DHT22;1311;47.966;7.958;2022-07-04T03:24:14;18.70;99.90
2603;DHT22;1311;47.966;7.958;2022-07-04T03:26:41;18.70;99.90
2603;DHT22;1311;47.966;7.958;2022-07-04T03:29:08;18.70;99.90
2603;DHT22;1311;47.966;7.958;2022-07-04T03:31:35;18.70;99.90
2603;DHT22;1311;47.966;7.958;2022-07-04T03:34:02;18.70;99.90
2603;DHT22;1311;47.966;7.958;2022-07-04T03:36:30;18.70;99.90
2603;DHT22;1311;47.966;7.958;2022-07-04T03:38:57;18.60;99.90
2603;DHT22;1311;47.966;7.958;2022-07-04T03:41:23;18.70;99.90
2603;DHT22;1311;47.966;7.958;2022-07-04T03:43:50;18.70;99.90
2603;DHT22;1311;47.966;7.958;2022-07-04T03:46:17;18.60;99.90
2603;DHT22;1311;47.966;7.958;2022-07-04T03:51:11;18.70;99.90
2603;DHT22;1311;47.966;7.958;2022-07-04T03:53:39;18.60;99.90
2603;DHT22;1311;47.966;7.958;2022-07-04T03:58:33;18.70;99.90
2603;DHT22;1311;47.966;7.958;2022-07-04T04:01:00;18.70;99.90
2603;DHT22;1311;47.966;7.958;2022-07-04T04:03:28;18.80;99.90
2603;DHT22;1311;47.966;7.958;2022-07-04T04:06:13;18.80;99.90
2603;DHT22;1311;47.966;7.958;2022-07-04T04:08:41;18.70;99.90
2603;DHT22;1311;47.966;7.958;2022-07-04T04:13:35;18.80;99.90
2603;DHT22;1311;47.966;7.958;2022-07-04T04:16:02;18.80;99.90
2603;DHT22;1311;47.966;7.958;2022-07-04T04:18:28;18.80;99.90
2603;DHT22;1311;47.966;7.958;2022-07-04T04:20:55;18.90;99.90
2603;DHT22;1311;47.966;7.958;2022-07-04T04:23:22;18.90;99.90
2603;DHT22;1311;47.966;7.958;2022-07-04T04:25:50;18.90;99.90
2603;DHT22;1311;47.966;7.958;2022-07-04T04:30:44;19.00;99.90
2603;DHT22;1311;47.966;7.958;2022-07-04T04:33:10;19.00;99.90
2603;DHT22;1311;47.966;7.958;2022-07-04T04:35:37;19.00;99.90
2603;DHT22;1311;47.966;7.958;2022-07-04T04:38:04;19.00;99.90
2603;DHT22;1311;47.966;7.958;2022-07-04T04:40:31;19.00;99.90
2603;DHT22;1311;47.966;7.958;2022-07-04T04:42:59;19.10;99.90
2603;DHT22;1311;47.966;7.958;2022-07-04T04:47:53;19.10;99.90
2603;DHT22;1311;47.966;7.958;2022-07-04T04:50:20;19.20;99.90
2603;DHT22;1311;47.966;7.958;2022-07-04T04:55:13;19.20;99.90
2603;DHT22;1311;47.966;7.958;2022-07-04T04:57:40;19.20;99.90
2603;DHT22;1311;47.966;7.958;2022-07-04T05:00:09;19.20;99.90
2603;DHT22;1311;47.966;7.958;2022-07-04T05:02:36;19.20;99.90
2603;DHT22;1311;47.966;7.958;2022-07-04T05:05:04;19.20;99.90
2603;DHT22;1311;47.966;7.958;2022-07-04T05:07:31;19.10;99.90
2603;DHT22;1311;47.966;7.958;2022-07-04T05:10:00;19.10;99.90
2603;DHT22;1311;47.966;7.958;2022-07-04T05:17:23;19.10;99.90
2603;DHT22;1311;47.966;7.958;2022-07-04T05:19:50;19.10;99.90
2603;DHT22;1311;47.966;7.958;2022-07-04T05:22:17;19.10;99.90
2603;DHT22;1311;47.966;7.958;2022-07-04T05:24:44;19.20;99.90
2603;DHT22;1311;47.966;7.958;2022-07-04T05:27:11;19.20;99.90
2603;DHT22;1311;47.966;7.958;2022-07-04T05:32:05;19.20;99.90
2603;DHT22;1311;47.966;7.958;2022-07-04T05:34:34;19.30;99.90
2603;DHT22;1311;47.966;7.958;2022-07-04T05:37:01;19.30;99.90
2603;DHT22;1311;47.966;7.958;2022-07-04T05:39:28;19.40;99.90
2603;DHT22;1311;47.966;7.958;2022-07-04T05:41:54;19.40;99.90
2603;DHT22;1311;47.966;7.958;2022-07-04T05:44:21;19.40;99.90
2603;DHT22;1311;47.966;7.958;2022-07-04T05:49:15;19.60;99.90
2603;DHT22;1311;47.966;7.958;2022-07-04T05:51:43;19.70;99.90
2603;DHT22;1311;47.966;7.958;2022-07-04T05:54:10;19.80;99.90
2603;DHT22;1311;47.966;7.958;2022-07-04T05:56:37;19.90;99.90
2603;DHT22;1311;47.966;7.958;2022-07-04T05:59:05;20.00;99.90
2603;DHT22;1311;47.966;7.958;2022-07-04T06:01:31;20.10;99.90
2603;DHT22;1311;47.966;7.958;2022-07-04T06:03:58;20.20;99.90
2603;DHT22;1311;47.966;7.958;2022-07-04T06:08:53;20.40;99.90
2603;DHT22;1311;47.966;7.958;2022-07-04T06:11:20;20.60;99.90
2603;DHT22;1311;47.966;7.958;2022-07-04T06:13:47;20.70;99.90
2603;DHT22;1311;47.966;7.958;2022-07-04T06:16:14;20.80;99.90
2603;DHT22;1311;47.966;7.958;2022-07-04T06:21:08;21.10;99.90
2603;DHT22;1311;47.966;7.958;2022-07-04T06:23:35;21.20;99.90
2603;DHT22;1311;47.966;7.958;2022-07-04T06:26:03;21.50;99.90
2603;DHT22;1311;47.966;7.958;2022-07-04T06:28:31;21.60;99.90
2603;DHT22;1311;47.966;7.958;2022-07-04T06:30:58;21.80;99.90
2603;DHT22;1311;47.966;7.958;2022-07-04T06:33:24;21.90;99.90
2603;DHT22;1311;47.966;7.958;2022-07-04T06:35:51;22.00;99.90
2603;DHT22;1311;47.966;7.958;2022-07-04T06:38:21;22.10;99.90
2603;DHT22;1311;47.966;7.958;2022-07-04T06:40:49;22.30;99.90
2603;DHT22;1311;47.966;7.958;2022-07-04T06:43:18;22.50;99.90
2603;DHT22;1311;47.966;7.958;2022-07-04T06:48:12;22.70;99.90
2603;DHT22;1311;47.966;7.958;2022-07-04T06:50:39;22.80;99.90
2603;DHT22;1311;47.966;7.958;2022-07-04T06:53:08;22.80;99.90
2603;DHT22;1311;47.966;7.958;2022-07-04T06:58:02;22.70;99.90
2603;DHT22;1311;47.966;7.958;2022-07-04T07:00:31;22.70;99.90
2603;DHT22;1311;47.966;7.958;2022-07-04T07:05:25;22.40;99.90
2603;DHT22;1311;47.966;7.958;2022-07-04T07:07:52;22.40;99.90
2603;DHT22;1311;47.966;7.958;2022-07-04T07:12:46;22.20;99.90
2603;DHT22;1311;47.966;7.958;2022-07-04T07:15:13;22.30;99.90
2603;DHT22;1311;47.966;7.958;2022-07-04T07:17:43;22.30;99.90
2603;DHT22;1311;47.966;7.958;2022-07-04T07:20:10;22.40;99.90
2603;DHT22;1311;47.966;7.958;2022-07-04T07:22:39;22.50;99.90
2603;DHT22;1311;47.966;7.958;2022-07-04T07:25:06;22.60;99.90
2603;DHT22;1311;47.966;7.958;2022-07-04T07:27:33;22.70;99.90
2603;DHT22;1311;47.966;7.958;2022-07-04T07:32:27;22.80;99.90
2603;DHT22;1311;47.966;7.958;2022-07-04T07:34:55;22.80;99.90
2603;DHT22;1311;47.966;7.958;2022-07-04T07:42:16;22.80;99.90
2603;DHT22;1311;47.966;7.958;2022-07-04T07:44:43;22.80;99.90
2603;DHT22;1311;47.966;7.958;2022-07-04T07:47:11;22.70;99.90
2603;DHT22;1311;47.966;7.958;2022-07-04T07:49:38;22.60;99.90
2603;DHT22;1311;47.966;7.958;2022-07-04T07:52:07;22.50;99.90
2603;DHT22;1311;47.966;7.958;2022-07-04T07:57:00;22.60;99.90
2603;DHT22;1311;47.966;7.958;2022-07-04T08:01:54;22.70;99.90
2603;DHT22;1311;47.966;7.958;2022-07-04T08:04:21;22.50;99.90
2603;DHT22;1311;47.966;7.958;2022-07-04T08:09:33;22.30;99.90
2603;DHT22;1311;47.966;7.958;2022-07-04T08:16:55;22.20;99.90
2603;DHT22;1311;47.966;7.958;2022-07-04T08:19:22;22.10;99.90
2603;DHT22;1311;47.966;7.958;2022-07-04T08:21:50;22.10;99.90
2603;DHT22;1311;47.966;7.958;2022-07-04T08:24:16;22.20;99.90
2603;DHT22;1311;47.966;7.958;2022-07-04T08:26:46;22.30;99.90
2603;DHT22;1311;47.966;7.958;2022-07-04T08:29:13;22.30;99.90
2603;DHT22;1311;47.966;7.958;2022-07-04T08:31:40;22.30;99.90
2603;DHT22;1311;47.966;7.958;2022-07-04T08:39:01;22.30;99.90
2603;DHT22;1311;47.966;7.958;2022-07-04T08:41:29;22.30;99.90
2603;DHT22;1311;47.966;7.958;2022-07-04T08:44:02;22.40;99.90
2603;DHT22;1311;47.966;7.958;2022-07-04T08:46:30;22.40;99.90
2603;DHT22;1311;47.966;7.958;2022-07-04T08:48:58;22.60;99.90
2603;DHT22;1311;47.966;7.958;2022-07-04T08:54:00;22.70;99.90
2603;DHT22;1311;47.966;7.958;2022-07-04T08:56:47;22.80;99.90
2603;DHT22;1311;47.966;7.958;2022-07-04T08:59:29;22.70;99.90
2603;DHT22;1311;47.966;7.958;2022-07-04T09:01:56;22.70;99.90
2603;DHT22;1311;47.966;7.958;2022-07-04T09:04:24;22.70;99.90
2603;DHT22;1311;47.966;7.958;2022-07-04T09:06:51;22.80;99.90
2603;DHT22;1311;47.966;7.958;2022-07-04T09:09:19;22.80;99.90
2603;DHT22;1311;47.966;7.958;2022-07-04T09:11:45;22.90;99.90
2603;DHT22;1311;47.966;7.958;2022-07-04T09:14:12;23.00;99.90
2603;DHT22;1311;47.966;7.958;2022-07-04T09:16:40;23.10;99.90
2603;DHT22;1311;47.966;7.958;2022-07-04T09:19:09;23.20;99.90
2603;DHT22;1311;47.966;7.958;2022-07-04T09:21:44;23.30;99.90
2603;DHT22;1311;47.966;7.958;2022-07-04T09:24:10;23.40;99.90
2603;DHT22;1311;47.966;7.958;2022-07-04T09:26:40;23.40;99.90
2603;DHT22;1311;47.966;7.958;2022-07-04T09:29:07;23.30;99.90
2603;DHT22;1311;47.966;7.958;2022-07-04T09:31:34;23.40;99.90
2603;DHT22;1311;47.966;7.958;2022-07-04T09:34:04;23.50;99.90
2603;DHT22;1311;47.966;7.958;2022-07-04T09:36:32;23.60;99.90
2603;DHT22;1311;47.966;7.958;2022-07-04T09:39:09;23.70;99.90
2603;DHT22;1311;47.966;7.958;2022-07-04T09:41:55;23.80;99.90
2603;DHT22;1311;47.966;7.958;2022-07-04T09:44:24;23.90;99.90
2603;DHT22;1311;47.966;7.958;2022-07-04T09:46:50;23.90;99.90
2603;DHT22;1311;47.966;7.958;2022-07-04T09:49:20;23.90;99.90
2603;DHT22;1311;47.966;7.958;2022-07-04T09:51:48;24.30;99.90
2603;DHT22;1311;47.966;7.958;2022-07-04T09:54:17;24.70;99.90
2603;DHT22;1311;47.966;7.958;2022-07-04T09:56:46;24.90;99.90
2603;DHT22;1311;47.966;7.958;2022-07-04T10:04:09;25.80;99.90
2603;DHT22;1311;47.966;7.958;2022-07-04T10:06:40;25.90;99.90
2603;DHT22;1311;47.966;7.958;2022-07-04T10:09:08;26.00;99.90
2603;DHT22;1311;47.966;7.958;2022-07-04T10:11:36;26.00;99.90
2603;DHT22;1311;47.966;7.958;2022-07-04T10:14:05;25.90;99.90
2603;DHT22;1311;47.966;7.958;2022-07-04T10:16:32;25.90;99.90
2603;DHT22;1311;47.966;7.958;2022-07-04T10:18:59;25.90;99.90
2603;DHT22;1311;47.966;7.958;2022-07-04T10:21:27;26.10;99.90
2603;DHT22;1311;47.966;7.958;2022-07-04T10:23:55;26.10;99.90
2603;DHT22;1311;47.966;7.958;2022-07-04T10:28:49;26.10;99.90
2603;DHT22;1311;47.966;7.958;2022-07-04T10:31:18;26.10;99.90
2603;DHT22;1311;47.966;7.958;2022-07-04T10:33:45;26.00;99.90
2603;DHT22;1311;47.966;7.958;2022-07-04T10:36:17;25.90;99.90
2603;DHT22;1311;47.966;7.958;2022-07-04T10:38:47;25.90;99.90
2603;DHT22;1311;47.966;7.958;2022-07-04T10:41:16;25.60;99.90
2603;DHT22;1311;47.966;7.958;2022-07-04T10:43:59;25.70;99.90
2603;DHT22;1311;47.966;7.958;2022-07-04T10:49:24;25.50;99.90
2603;DHT22;1311;47.966;7.958;2022-07-04T10:51:52;25.50;99.90
2603;DHT22;1311;47.966;7.958;2022-07-04T10:54:22;25.70;99.90
2603;DHT22;1311;47.966;7.958;2022-07-04T10:56:56;25.70;99.90
2603;DHT22;1311;47.966;7.958;2022-07-04T10:59:25;25.90;99.90
2603;DHT22;1311;47.966;7.958;2022-07-04T11:04:47;26.00;99.90
2603;DHT22;1311;47.966;7.958;2022-07-04T11:07:14;25.90;99.90
2603;DHT22;1311;47.966;7.958;2022-07-04T11:09:41;25.90;99.90
2603;DHT22;1311;47.966;7.958;2022-07-04T11:12:11;26.10;99.90
2603;DHT22;1311;47.966;7.958;2022-07-04T11:14:41;26.00;99.90
2603;DHT22;1311;47.966;7.958;2022-07-04T11:17:10;26.00;99.90
2603;DHT22;1311;47.966;7.958;2022-07-04T11:19:37;26.10;99.90
2603;DHT22;1311;47.966;7.958;2022-07-04T11:22:05;26.00;99.90
2603;DHT22;1311;47.966;7.958;2022-07-04T11:24:33;26.10;99.90
2603;DHT22;1311;47.966;7.958;2022-07-04T11:27:00;26.10;99.90
2603;DHT22;1311;47.966;7.958;2022-07-04T11:29:29;26.20;99.90
2603;DHT22;1311;47.966;7.958;2022-07-04T11:31:56;26.70;99.90
2603;DHT22;1311;47.966;7.958;2022-07-04T11:34:23;27.20;99.90
2603;DHT22;1311;47.966;7.958;2022-07-04T11:36:51;27.40;99.90
2603;DHT22;1311;47.966;7.958;2022-07-04T11:39:20;27.30;99.90
2603;DHT22;1311;47.966;7.958;2022-07-04T11:41:50;27.30;99.90
2603;DHT22;1311;47.966;7.958;2022-07-04T11:44:37;27.30;99.90
2603;DHT22;1311;47.966;7.958;2022-07-04T11:47:33;27.50;99.90
2603;DHT22;1311;47.966;7.958;2022-07-04T11:50:01;27.30;99.90
2603;DHT22;1311;47.966;7.958;2022-07-04T11:52:30;27.30;99.90
2603;DHT22;1311;47.966;7.958;2022-07-04T11:57:28;27.40;99.90
2603;DHT22;1311;47.966;7.958;2022-07-04T12:00:00;27.30;99.90
2603;DHT22;1311;47.966;7.958;2022-07-04T12:02:29;27.50;99.90
2603;DHT22;1311;47.966;7.958;2022-07-04T12:04:56;27.60;99.90
2603;DHT22;1311;47.966;7.958;2022-07-04T12:07:26;27.60;99.90
2603;DHT22;1311;47.966;7.958;2022-07-04T12:09:54;27.70;99.90
2603;DHT22;1311;47.966;7.958;2022-07-04T12:12:21;27.90;99.90
2603;DHT22;1311;47.966;7.958;2022-07-04T12:15:01;28.10;99.90
2603;DHT22;1311;47.966;7.958;2022-07-04T12:17:31;28.30;99.90
2603;DHT22;1311;47.966;7.958;2022-07-04T12:20:00;28.50;99.90
2603;DHT22;1311;47.966;7.958;2022-07-04T12:22:29;28.50;99.90
2603;DHT22;1311;47.966;7.958;2022-07-04T12:29:52;28.60;99.90
2603;DHT22;1311;47.966;7.958;2022-07-04T12:32:21;28.60;99.90
2603;DHT22;1311;47.966;7.958;2022-07-04T12:34:48;28.60;99.90
2603;DHT22;1311;47.966;7.958;2022-07-04T12:37:15;28.60;99.90
2603;DHT22;1311;47.966;7.958;2022-07-04T12:39:44;28.70;99.90
2603;DHT22;1311;47.966;7.958;2022-07-04T12:42:13;28.40;99.90
2603;DHT22;1311;47.966;7.958;2022-07-04T12:44:41;28.30;99.90
2603;DHT22;1311;47.966;7.958;2022-07-04T12:47:08;28.10;99.90
2603;DHT22;1311;47.966;7.958;2022-07-04T12:49:41;28.10;99.90
2603;DHT22;1311;47.966;7.958;2022-07-04T12:52:10;28.20;99.90
2603;DHT22;1311;47.966;7.958;2022-07-04T12:54:37;28.30;99.90
2603;DHT22;1311;47.966;7.958;2022-07-04T12:57:07;28.30;99.90
2603;DHT22;1311;47.966;7.958;2022-07-04T12:59:34;28.20;99.90
2603;DHT22;1311;47.966;7.958;2022-07-04T13:02:01;28.20;99.90
2603;DHT22;1311;47.966;7.958;2022-07-04T13:04:28;28.50;99.90
2603;DHT22;1311;47.966;7.958;2022-07-04T13:06:58;28.80;99.90
2603;DHT22;1311;47.966;7.958;2022-07-04T13:09:25;28.90;99.90
2603;DHT22;1311;47.966;7.958;2022-07-04T13:11:52;29.10;99.90
2603;DHT22;1311;47.966;7.958;2022-07-04T13:14:37;29.20;99.90
2603;DHT22;1311;47.966;7.958;2022-07-04T13:19:30;29.60;99.90
2603;DHT22;1311;47.966;7.958;2022-07-04T13:21:59;29.70;99.90
2603;DHT22;1311;47.966;7.958;2022-07-04T13:24:25;29.60;99.10
2603;DHT22;1311;47.966;7.958;2022-07-04T13:29:19;29.60;99.40
2603;DHT22;1311;47.966;7.958;2022-07-04T13:31:48;29.30;99.10
2603;DHT22;1311;47.966;7.958;2022-07-04T13:36:42;29.30;99.90
2603;DHT22;1311;47.966;7.958;2022-07-04T13:39:10;29.10;99.20
2603;DHT22;1311;47.966;7.958;2022-07-04T13:44:06;28.50;98.80
2603;DHT22;1311;47.966;7.958;2022-07-04T13:46:34;28.40;99.20
2603;DHT22;1311;47.966;7.958;2022-07-04T13:51:28;28.10;99.90
2603;DHT22;1311;47.966;7.958;2022-07-04T13:53:55;27.90;99.90
2603;DHT22;1311;47.966;7.958;2022-07-04T13:56:23;27.90;99.90
2603;DHT22;1311;47.966;7.958;2022-07-04T13:58:50;27.70;99.90
2603;DHT22;1311;47.966;7.958;2022-07-04T14:01:17;27.70;99.90
2603;DHT22;1311;47.966;7.958;2022-07-04T14:03:45;27.70;99.90
2603;DHT22;1311;47.966;7.958;2022-07-04T14:06:12;27.70;99.90
2603;DHT22;1311;47.966;7.958;2022-07-04T14:08:39;27.80;99.90
2603;DHT22;1311;47.966;7.958;2022-07-04T14:11:06;27.80;99.90
2603;DHT22;1311;47.966;7.958;2022-07-04T14:13:34;27.90;99.90
2603;DHT22;1311;47.966;7.958;2022-07-04T14:16:01;27.80;99.90
2603;DHT22;1311;47.966;7.958;2022-07-04T14:18:30;27.70;99.90
2603;DHT22;1311;47.966;7.958;2022-07-04T14:20:57;27.80;99.90
2603;DHT22;1311;47.966;7.958;2022-07-04T14:23:24;28.00;99.90
2603;DHT22;1311;47.966;7.958;2022-07-04T14:26:05;28.20;99.90
2603;DHT22;1311;47.966;7.958;2022-07-04T14:28:33;28.10;99.90
2603;DHT22;1311;47.966;7.958;2022-07-04T14:33:27;28.20;99.90
2603;DHT22;1311;47.966;7.958;2022-07-04T14:35:54;28.10;99.90
2603;DHT22;1311;47.966;7.958;2022-07-04T14:40:48;27.90;99.90
2603;DHT22;1311;47.966;7.958;2022-07-04T14:45:46;27.80;99.90
2603;DHT22;1311;47.966;7.958;2022-07-04T14:48:13;27.70;99.90
2603;DHT22;1311;47.966;7.958;2022-07-04T14:50:40;27.90;99.90
2603;DHT22;1311;47.966;7.958;2022-07-04T14:55:33;27.50;99.90
2603;DHT22;1311;47.966;7.958;2022-07-04T14:58:00;27.50;99.90
2603;DHT22;1311;47.966;7.958;2022-07-04T15:00:27;27.70;99.90
2603;DHT22;1311;47.966;7.958;2022-07-04T15:02:55;28.00;99.90
2603;DHT22;1311;47.966;7.958;2022-07-04T15:05:22;27.80;99.30
2603;DHT22;1311;47.966;7.958;2022-07-04T15:07:48;27.80;99.90
2603;DHT22;1311;47.966;7.958;2022-07-04T15:10:15;27.90;99.90
2603;DHT22;1311;47.966;7.958;2022-07-04T15:12:42;27.80;99.90
2603;DHT22;1311;47.966;7.958;2022-07-04T15:15:10;27.80;99.90
2603;DHT22;1311;47.966;7.958;2022-07-04T15:17:37;27.80;99.90
2603;DHT22;1311;47.966;7.958;2022-07-04T15:20:06;27.80;99.90
2603;DHT22;1311;47.966;7.958;2022-07-04T15:22:50;27.80;99.90
2603;DHT22;1311;47.966;7.958;2022-07-04T15:25:34;27.30;98.30
2603;DHT22;1311;47.966;7.958;2022-07-04T15:28:01;27.10;97.20
2603;DHT22;1311;47.966;7.958;2022-07-04T15:30:28;27.10;97.30
2603;DHT22;1311;47.966;7.958;2022-07-04T15:32:54;27.10;98.10
2603;DHT22;1311;47.966;7.958;2022-07-04T15:35:22;27.00;98.90
2603;DHT22;1311;47.966;7.958;2022-07-04T15:37:49;27.10;98.80
2603;DHT22;1311;47.966;7.958;2022-07-04T15:40:16;27.10;99.10
2603;DHT22;1311;47.966;7.958;2022-07-04T15:42:43;27.10;99.20
2603;DHT22;1311;47.966;7.958;2022-07-04T15:45:10;27.30;99.00
2603;DHT22;1311;47.966;7.958;2022-07-04T15:50:05;27.00;99.50
2603;DHT22;1311;47.966;7.958;2022-07-04T15:52:33;27.00;98.30
2603;DHT22;1311;47.966;7.958;2022-07-04T15:54:59;26.80;98.60
2603;DHT22;1311;47.966;7.958;2022-07-04T15:57:26;26.80;99.30
2603;DHT22;1311;47.966;7.958;2022-07-04T15:59:53;26.60;99.20
2603;DHT22;1311;47.966;7.958;2022-07-04T16:02:20;26.30;99.80
2603;DHT22;1311;47.966;7.958;2022-07-04T16:04:46;26.30;99.90
2603;DHT22;1311;47.966;7.958;2022-07-04T16:07:13;26.00;99.90
2603;DHT22;1311;47.966;7.958;2022-07-04T16:09:42;25.90;99.90
2603;DHT22;1311;47.966;7.958;2022-07-04T16:12:09;25.90;99.90
2603;DHT22;1311;47.966;7.958;2022-07-04T16:14:35;25.80;99.90
2603;DHT22;1311;47.966;7.958;2022-07-04T16:17:03;25.60;99.90
2603;DHT22;1311;47.966;7.958;2022-07-04T16:19:30;25.60;99.90
2603;DHT22;1311;47.966;7.958;2022-07-04T16:21:57;25.40;99.90
2603;DHT22;1311;47.966;7.958;2022-07-04T16:26:52;25.40;99.90
2603;DHT22;1311;47.966;7.958;2022-07-04T16:29:19;25.30;99.90
2603;DHT22;1311;47.966;7.958;2022-07-04T16:31:46;25.40;99.90
2603;DHT22;1311;47.966;7.958;2022-07-04T16:34:12;25.40;99.90
2603;DHT22;1311;47.966;7.958;2022-07-04T16:36:39;25.30;99.90
2603;DHT22;1311;47.966;7.958;2022-07-04T16:39:06;25.30;99.90
2603;DHT22;1311;47.966;7.958;2022-07-04T16:41:33;25.20;99.90
2603;DHT22;1311;47.966;7.958;2022-07-04T16:44:01;25.10;99.90
2603;DHT22;1311;47.966;7.958;2022-07-04T16:46:28;25.00;99.90
2603;DHT22;1311;47.966;7.958;2022-07-04T16:48:55;24.90;99.90
2603;DHT22;1311;47.966;7.958;2022-07-04T16:51:21;24.90;99.90
2603;DHT22;1311;47.966;7.958;2022-07-04T16:56:15;24.90;99.90
2603;DHT22;1311;47.966;7.958;2022-07-04T16:58:42;24.90;99.90
2603;DHT22;1311;47.966;7.958;2022-07-04T17:01:10;24.90;99.90
2603;DHT22;1311;47.966;7.958;2022-07-04T17:03:37;24.90;99.90
2603;DHT22;1311;47.966;7.958;2022-07-04T17:06:04;25.00;99.90
2603;DHT22;1311;47.966;7.958;2022-07-04T17:08:31;25.00;99.90
2603;DHT22;1311;47.966;7.958;2022-07-04T17:11:00;25.00;99.90
2603;DHT22;1311;47.966;7.958;2022-07-04T17:13:26;25.00;99.90
2603;DHT22;1311;47.966;7.958;2022-07-04T17:15:53;25.10;99.90
2603;DHT22;1311;47.966;7.958;2022-07-04T17:18:21;25.40;99.90
2603;DHT22;1311;47.966;7.958;2022-07-04T17:20:48;25.50;99.90
2603;DHT22;1311;47.966;7.958;2022-07-04T17:23:16;25.60;99.90
2603;DHT22;1311;47.966;7.958;2022-07-04T17:25:43;25.80;99.90
2603;DHT22;1311;47.966;7.958;2022-07-04T17:28:10;25.80;99.90
2603;DHT22;1311;47.966;7.958;2022-07-04T17:30:37;25.90;99.90
2603;DHT22;1311;47.966;7.958;2022-07-04T17:33:04;25.90;99.90
2603;DHT22;1311;47.966;7.958;2022-07-04T17:35:32;25.90;99.90
2603;DHT22;1311;47.966;7.958;2022-07-04T17:37:59;25.40;99.90
2603;DHT22;1311;47.966;7.958;2022-07-04T17:40:26;25.20;99.90
2603;DHT22;1311;47.966;7.958;2022-07-04T17:42:53;25.20;99.90
2603;DHT22;1311;47.966;7.958;2022-07-04T17:45:20;25.00;99.90
2603;DHT22;1311;47.966;7.958;2022-07-04T17:47:46;24.90;99.90
2603;DHT22;1311;47.966;7.958;2022-07-04T17:50:13;24.90;99.90
2603;DHT22;1311;47.966;7.958;2022-07-04T17:52:41;24.90;99.90
2603;DHT22;1311;47.966;7.958;2022-07-04T17:55:09;24.70;99.90
2603;DHT22;1311;47.966;7.958;2022-07-04T17:57:36;24.80;99.90
2603;DHT22;1311;47.966;7.958;2022-07-04T18:00:03;24.70;99.90
2603;DHT22;1311;47.966;7.958;2022-07-04T18:02:30;24.60;99.90
2603;DHT22;1311;47.966;7.958;2022-07-04T18:04:56;24.60;99.90
2603;DHT22;1311;47.966;7.958;2022-07-04T18:07:23;24.60;99.90
2603;DHT22;1311;47.966;7.958;2022-07-04T18:09:51;24.40;99.90
2603;DHT22;1311;47.966;7.958;2022-07-04T18:12:18;24.40;99.90
2603;DHT22;1311;47.966;7.958;2022-07-04T18:14:45;24.40;99.90
2603;DHT22;1311;47.966;7.958;2022-07-04T18:17:12;24.30;99.90
2603;DHT22;1311;47.966;7.958;2022-07-04T18:19:39;24.30;99.90
2603;DHT22;1311;47.966;7.958;2022-07-04T18:22:06;24.10;99.90
2603;DHT22;1311;47.966;7.958;2022-07-04T18:24:33;24.20;99.90
2603;DHT22;1311;47.966;7.958;2022-07-04T18:27:01;24.10;99.90
2603;DHT22;1311;47.966;7.958;2022-07-04T18:29:28;24.00;99.90
2603;DHT22;1311;47.966;7.958;2022-07-04T18:31:56;24.10;99.90
2603;DHT22;1311;47.966;7.958;2022-07-04T18:34:23;24.10;99.90
2603;DHT22;1311;47.966;7.958;2022-07-04T18:36:51;24.10;99.90
2603;DHT22;1311;47.966;7.958;2022-07-04T18:39:18;24.00;99.90
2603;DHT22;1311;47.966;7.958;2022-07-04T18:41:45;23.90;99.90
2603;DHT22;1311;47.966;7.958;2022-07-04T18:44:31;23.90;99.90
2603;DHT22;1311;47.966;7.958;2022-07-04T18:46:58;23.80;99.90
2603;DHT22;1311;47.966;7.958;2022-07-04T18:49:25;23.80;99.90
2603;DHT22;1311;47.966;7.958;2022-07-04T18:51:52;23.70;99.90
2603;DHT22;1311;47.966;7.958;2022-07-04T18:54:19;23.70;99.90
2603;DHT22;1311;47.966;7.958;2022-07-04T18:56:46;23.60;99.90